sensor_id;sensor_type;location;lat;lon;timestamp;pressure;altitude;pressure_sealevel;temperature;humidity
43155;BME280;34212;51.018;13.586;2022-09-12T00:04:47;98010.84;;;17.18;76.03
43155;BME280;34212;51.018;13.586;2022-09-12T00:09:49;98021.63;;;17.18;76.10
43155;BME280;34212;51.018;13.586;2022-09-12T00:14:50;98019.97;;;17.17;76.06
43155;BME280;34212;51.018;13.586;2022-09-12T00:19:52;98012.91;;;17.16;75.94
43155;BME280;34212;51.018;13.586;2022-09-12T00:24:53;98025.78;;;17.14;76.00
43155;BME280;34212;51.018;13.586;2022-09-12T00:29:54;98017.09;;;17.12;75.99
43155;BME280;34212;51.018;13.586;2022-09-12T00:34:56;98019.59;;;17.06;76.08
43155;BME280;34212;51.018;13.586;2022-09-12T00:39:57;98011.34;;;17.01;76.12
43155;BME280;34212;51.018;13.586;2022-09-12T00:44:58;98010.34;;;16.96;76.08
43155;BME280;34212;51.018;13.586;2022-09-12T00:50:03;98004.56;;;16.92;75.94
43155;BME280;34212;51.018;13.586;2022-09-12T00:55:07;98000.88;;;16.87;75.97
43155;BME280;34212;51.018;13.586;2022-09-12T01:00:12;97998.59;;;16.83;76.06
43155;BME280;34212;51.018;13.586;2022-09-12T01:05:15;98004.81;;;16.84;76.00
43155;BME280;34212;51.018;13.586;2022-09-12T01:10:17;97992.38;;;16.83;76.04
43155;BME280;34212;51.018;13.586;2022-09-12T01:15:19;97995.09;;;16.83;75.94
43155;BME280;34212;51.018;13.586;2022-09-12T01:25:36;97995.09;;;16.83;76.26
43155;BME280;34212;51.018;13.586;2022-09-12T01:30:46;97999.22;;;16.85;76.17
43155;BME280;34212;51.018;13.586;2022-09-12T01:46:30;97987.16;;;16.88;76.37
43155;BME280;34212;51.018;13.586;2022-09-12T01:51:37;97979.69;;;16.90;76.34
43155;BME280;34212;51.018;13.586;2022-09-12T01:56:40;97978.44;;;16.93;76.42
43155;BME280;34212;51.018;13.586;2022-09-12T02:02:19;97984.66;;;16.93;76.22
43155;BME280;34212;51.018;13.586;2022-09-12T02:07:15;97980.31;;;16.92;76.54
43155;BME280;34212;51.018;13.586;2022-09-12T02:12:22;97973.69;;;16.95;76.59
43155;BME280;34212;51.018;13.586;2022-09-12T02:17:25;97970.75;;;16.96;76.46
43155;BME280;34212;51.018;13.586;2022-09-12T02:22:28;97974.06;;;16.98;76.50
43155;BME280;34212;51.018;13.586;2022-09-12T02:27:35;97963.06;;;17.00;76.72
43155;BME280;34212;51.018;13.586;2022-09-12T02:32:47;97968.25;;;17.01;76.55
43155;BME280;34212;51.018;13.586;2022-09-12T02:38:03;97971.56;;;16.97;76.36
43155;BME280;34212;51.018;13.586;2022-09-12T02:43:06;97964.59;;;16.89;76.39
43155;BME280;34212;51.018;13.586;2022-09-12T02:48:09;97968.97;;;16.83;76.48
43155;BME280;34212;51.018;13.586;2022-09-12T02:53:13;97963.78;;;16.82;76.50
43155;BME280;34212;51.018;13.586;2022-09-12T02:58:15;97961.31;;;16.80;76.50
43155;BME280;34212;51.018;13.586;2022-09-12T03:14:09;97965.91;;;16.73;76.56
43155;BME280;34212;51.018;13.586;2022-09-12T03:19:28;97962.34;;;16.73;76.59
43155;BME280;34212;51.018;13.586;2022-09-12T03:24:34;97965.03;;;16.73;76.66
43155;BME280;34212;51.018;13.586;2022-09-12T03:29:37;97962.16;;;16.74;76.58
43155;BME280;34212;51.018;13.586;2022-09-12T03:34:40;97962.34;;;16.73;76.62
43155;BME280;34212;51.018;13.586;2022-09-12T03:39:41;97961.75;;;16.71;76.26
43155;BME280;34212;51.018;13.586;2022-09-12T03:44:42;97957.63;;;16.68;76.42
43155;BME280;34212;51.018;13.586;2022-09-12T03:49:44;97956.56;;;16.69;76.64
43155;BME280;34212;51.018;13.586;2022-09-12T03:54:46;97959.50;;;16.68;76.61
43155;BME280;34212;51.018;13.586;2022-09-12T03:59:48;97967.16;;;16.71;76.62
43155;BME280;34212;51.018;13.586;2022-09-12T04:04:50;97966.53;;;16.69;76.53
43155;BME280;34212;51.018;13.586;2022-09-12T04:09:51;97963.84;;;16.69;76.65
43155;BME280;34212;51.018;13.586;2022-09-12T04:14:53;97967.34;;;16.69;76.71
43155;BME280;34212;51.018;13.586;2022-09-12T04:19:54;97960.09;;;16.70;76.64
43155;BME280;34212;51.018;13.586;2022-09-12T04:24:56;97969.03;;;16.70;76.46
43155;BME280;34212;51.018;13.586;2022-09-12T04:29:57;97966.91;;;16.72;76.62
43155;BME280;34212;51.018;13.586;2022-09-12T04:34:59;97967.75;;;16.73;76.44
43155;BME280;34212;51.018;13.586;2022-09-12T04:40:00;97961.34;;;16.74;76.57
43155;BME280;34212;51.018;13.586;2022-09-12T04:45:02;97970.44;;;16.73;76.35
43155;BME280;34212;51.018;13.586;2022-09-12T04:50:05;97975.00;;;16.72;76.27
43155;BME280;34212;51.018;13.586;2022-09-12T04:55:07;97982.06;;;16.73;76.42
43155;BME280;34212;51.018;13.586;2022-09-12T05:00:09;97975.81;;;16.73;76.46
43155;BME280;34212;51.018;13.586;2022-09-12T05:05:14;97974.16;;;16.72;76.29
43155;BME280;34212;51.018;13.586;2022-09-12T05:10:17;97976.88;;;16.72;76.60
43155;BME280;34212;51.018;13.586;2022-09-12T05:15:19;97972.53;;;16.71;76.42
43155;BME280;34212;51.018;13.586;2022-09-12T05:20:20;97977.91;;;16.71;76.47
43155;BME280;34212;51.018;13.586;2022-09-12T05:25:21;97991.97;;;16.73;76.59
43155;BME280;34212;51.018;13.586;2022-09-12T05:30:22;97980.59;;;16.71;76.70
43155;BME280;34212;51.018;13.586;2022-09-12T05:35:24;97994.47;;;16.74;76.67
43155;BME280;34212;51.018;13.586;2022-09-12T05:40:25;97999.84;;;16.74;76.80
43155;BME280;34212;51.018;13.586;2022-09-12T05:45:27;98005.25;;;16.74;76.79
43155;BME280;34212;51.018;13.586;2022-09-12T05:50:29;98012.69;;;16.79;76.95
43155;BME280;34212;51.018;13.586;2022-09-12T05:55:32;98006.06;;;16.81;76.73
43155;BME280;34212;51.018;13.586;2022-09-12T06:00:34;98014.31;;;16.87;76.83
43155;BME280;34212;51.018;13.586;2022-09-12T06:05:35;98016.38;;;16.91;76.73
43155;BME280;34212;51.018;13.586;2022-09-12T06:10:36;98013.66;;;16.98;76.86
43155;BME280;34212;51.018;13.586;2022-09-12T06:15:38;98015.69;;;17.02;76.94
43155;BME280;34212;51.018;13.586;2022-09-12T06:20:39;98014.22;;;17.06;76.92
43155;BME280;34212;51.018;13.586;2022-09-12T06:25:45;98015.00;;;17.14;77.03
43155;BME280;34212;51.018;13.586;2022-09-12T06:30:46;98019.53;;;17.20;76.94
43155;BME280;34212;51.018;13.586;2022-09-12T06:35:48;98019.09;;;17.23;76.94
43155;BME280;34212;51.018;13.586;2022-09-12T06:40:50;98017.19;;;17.30;77.08
43155;BME280;34212;51.018;13.586;2022-09-12T06:45:51;98016.50;;;17.35;77.05
43155;BME280;34212;51.018;13.586;2022-09-12T06:51:03;98024.34;;;17.43;77.05
43155;BME280;34212;51.018;13.586;2022-09-12T06:56:09;98033.44;;;17.48;77.03
43155;BME280;34212;51.018;13.586;2022-09-12T07:06:17;98034.59;;;17.59;76.91
43155;BME280;34212;51.018;13.586;2022-09-12T07:11:20;98038.53;;;17.63;77.03
43155;BME280;34212;51.018;13.586;2022-09-12T07:16:21;98044.88;;;17.69;76.82
43155;BME280;34212;51.018;13.586;2022-09-12T07:21:23;98058.56;;;17.74;76.69
43155;BME280;34212;51.018;13.586;2022-09-12T07:26:25;98048.34;;;17.83;76.73
43155;BME280;34212;51.018;13.586;2022-09-12T07:31:27;98050.38;;;17.87;76.71
43155;BME280;34212;51.018;13.586;2022-09-12T07:36:29;98055.06;;;17.98;76.95
43155;BME280;34212;51.018;13.586;2022-09-12T07:41:30;98055.38;;;18.09;76.53
43155;BME280;34212;51.018;13.586;2022-09-12T07:46:34;98050.72;;;18.16;76.78
43155;BME280;34212;51.018;13.586;2022-09-12T07:51:35;98054.41;;;18.21;76.70
43155;BME280;34212;51.018;13.586;2022-09-12T07:56:37;98059.75;;;18.28;76.00
43155;BME280;34212;51.018;13.586;2022-09-12T08:01:39;98059.31;;;18.31;76.10
43155;BME280;34212;51.018;13.586;2022-09-12T08:06:41;98059.03;;;18.39;76.14
43155;BME280;34212;51.018;13.586;2022-09-12T08:11:43;98060.75;;;18.52;75.87
43155;BME280;34212;51.018;13.586;2022-09-12T08:16:44;98055.88;;;18.61;75.86
43155;BME280;34212;51.018;13.586;2022-09-12T08:21:45;98065.19;;;18.65;75.75
43155;BME280;34212;51.018;13.586;2022-09-12T08:26:47;98061.91;;;18.63;75.06
43155;BME280;34212;51.018;13.586;2022-09-12T08:31:48;98062.34;;;18.78;74.89
43155;BME280;34212;51.018;13.586;2022-09-12T08:36:55;98071.41;;;19.02;75.07
43155;BME280;34212;51.018;13.586;2022-09-12T08:42:03;98068.34;;;18.99;74.33
43155;BME280;34212;51.018;13.586;2022-09-12T08:57:26;98054.34;;;19.20;74.69
43155;BME280;34212;51.018;13.586;2022-09-12T09:02:31;98055.66;;;19.29;74.44
43155;BME280;34212;51.018;13.586;2022-09-12T09:12:49;98045.97;;;19.52;74.36
43155;BME280;34212;51.018;13.586;2022-09-12T09:17:59;98060.00;;;19.60;74.02
43155;BME280;34212;51.018;13.586;2022-09-12T09:28:30;98051.84;;;19.91;74.17
43155;BME280;34212;51.018;13.586;2022-09-12T09:33:29;98047.69;;;20.00;74.01
43155;BME280;34212;51.018;13.586;2022-09-12T09:38:37;98048.53;;;20.12;73.41
43155;BME280;34212;51.018;13.586;2022-09-12T09:43:41;98044.78;;;20.13;72.91
43155;BME280;34212;51.018;13.586;2022-09-12T09:48:44;98044.88;;;20.18;72.48
43155;BME280;34212;51.018;13.586;2022-09-12T09:54:30;98043.00;;;20.30;72.69
43155;BME280;34212;51.018;13.586;2022-09-12T09:59:12;98044.31;;;20.16;72.14
43155;BME280;34212;51.018;13.586;2022-09-12T10:04:16;98043.84;;;19.96;72.09
43155;BME280;34212;51.018;13.586;2022-09-12T10:09:22;98037.25;;;19.92;72.26
43155;BME280;34212;51.018;13.586;2022-09-12T10:19:38;98032.53;;;20.22;69.86
43155;BME280;34212;51.018;13.586;2022-09-12T10:24:40;98031.47;;;20.47;70.36
43155;BME280;34212;51.018;13.586;2022-09-12T10:29:44;98037.81;;;20.52;69.00
43155;BME280;34212;51.018;13.586;2022-09-12T10:34:51;98038.66;;;20.53;69.04
43155;BME280;34212;51.018;13.586;2022-09-12T10:39:54;98030.75;;;20.40;66.82
43155;BME280;34212;51.018;13.586;2022-09-12T10:44:57;98016.72;;;20.43;67.54
43155;BME280;34212;51.018;13.586;2022-09-12T10:55:24;98009.22;;;20.97;67.90
43155;BME280;34212;51.018;13.586;2022-09-12T11:00:29;97996.75;;;21.13;67.34
43155;BME280;34212;51.018;13.586;2022-09-12T11:05:47;97999.81;;;21.16;65.96
43155;BME280;34212;51.018;13.586;2022-09-12T11:36:27;97996.41;;;21.38;64.64
43155;BME280;34212;51.018;13.586;2022-09-12T11:41:33;98006.94;;;21.51;65.47
43155;BME280;34212;51.018;13.586;2022-09-12T11:46:37;98008.84;;;21.67;66.16
43155;BME280;34212;51.018;13.586;2022-09-12T11:56:44;98005.78;;;21.98;63.68
43155;BME280;34212;51.018;13.586;2022-09-12T12:01:46;98012.03;;;21.98;63.46
43155;BME280;34212;51.018;13.586;2022-09-12T12:07:07;98004.84;;;21.87;63.51
43155;BME280;34212;51.018;13.586;2022-09-12T12:12:10;98003.94;;;21.81;63.14
43155;BME280;34212;51.018;13.586;2022-09-12T12:17:19;98000.28;;;21.92;63.30
43155;BME280;34212;51.018;13.586;2022-09-12T12:22:22;98001.34;;;21.91;62.90
43155;BME280;34212;51.018;13.586;2022-09-12T12:27:44;97994.13;;;21.80;63.10
43155;BME280;34212;51.018;13.586;2022-09-12T12:32:45;97987.97;;;21.85;61.99
43155;BME280;34212;51.018;13.586;2022-09-12T12:37:51;97978.22;;;21.89;60.65
43155;BME280;34212;51.018;13.586;2022-09-12T12:43:00;97978.38;;;21.99;60.40
43155;BME280;34212;51.018;13.586;2022-09-12T12:48:08;97967.09;;;22.07;60.34
43155;BME280;34212;51.018;13.586;2022-09-12T12:53:19;97966.75;;;22.21;61.11
43155;BME280;34212;51.018;13.586;2022-09-12T13:03:27;97961.19;;;22.49;61.24
43155;BME280;34212;51.018;13.586;2022-09-12T13:08:31;97952.97;;;22.44;59.31
43155;BME280;34212;51.018;13.586;2022-09-12T13:13:37;97947.53;;;22.44;60.47
43155;BME280;34212;51.018;13.586;2022-09-12T13:18:42;97943.28;;;22.53;61.05
43155;BME280;34212;51.018;13.586;2022-09-12T13:23:58;97934.94;;;23.09;59.33
43155;BME280;34212;51.018;13.586;2022-09-12T13:34:12;97931.13;;;24.12;60.23
43155;BME280;34212;51.018;13.586;2022-09-12T13:44:24;97926.97;;;24.04;61.37
43155;BME280;34212;51.018;13.586;2022-09-12T13:49:29;97923.34;;;23.88;61.03
43155;BME280;34212;51.018;13.586;2022-09-12T13:54:32;97924.91;;;23.74;61.18
43155;BME280;34212;51.018;13.586;2022-09-12T13:59:38;97919.59;;;23.62;60.82
43155;BME280;34212;51.018;13.586;2022-09-12T14:04:40;97911.72;;;23.66;61.86
43155;BME280;34212;51.018;13.586;2022-09-12T14:10:00;97924.47;;;23.60;62.23
43155;BME280;34212;51.018;13.586;2022-09-12T14:15:02;97920.06;;;23.54;62.40
43155;BME280;34212;51.018;13.586;2022-09-12T14:20:07;97915.81;;;23.31;61.62
43155;BME280;34212;51.018;13.586;2022-09-12T14:25:18;97909.75;;;23.24;61.66
43155;BME280;34212;51.018;13.586;2022-09-12T14:30:30;97907.22;;;23.12;60.53
43155;BME280;34212;51.018;13.586;2022-09-12T14:35:32;97900.13;;;23.11;60.72
43155;BME280;34212;51.018;13.586;2022-09-12T14:40:39;97906.09;;;23.08;60.50
43155;BME280;34212;51.018;13.586;2022-09-12T14:45:41;97894.38;;;23.08;60.64
43155;BME280;34212;51.018;13.586;2022-09-12T14:50:42;97893.88;;;23.11;61.39
43155;BME280;34212;51.018;13.586;2022-09-12T14:55:57;97891.66;;;23.08;61.71
43155;BME280;34212;51.018;13.586;2022-09-12T15:06:17;97890.69;;;22.92;61.17
43155;BME280;34212;51.018;13.586;2022-09-12T15:11:20;97883.03;;;22.89;62.12
43155;BME280;34212;51.018;13.586;2022-09-12T15:16:21;97877.00;;;22.81;62.47
43155;BME280;34212;51.018;13.586;2022-09-12T15:21:23;97876.91;;;22.71;62.16
43155;BME280;34212;51.018;13.586;2022-09-12T15:26:24;97877.97;;;22.70;62.66
43155;BME280;34212;51.018;13.586;2022-09-12T15:31:30;97877.16;;;22.70;63.30
43155;BME280;34212;51.018;13.586;2022-09-12T15:36:32;97878.47;;;22.67;64.00
43155;BME280;34212;51.018;13.586;2022-09-12T15:41:34;97872.16;;;22.62;64.03
43155;BME280;34212;51.018;13.586;2022-09-12T15:46:37;97872.63;;;22.53;64.45
43155;BME280;34212;51.018;13.586;2022-09-12T15:51:38;97870.34;;;22.45;64.66
43155;BME280;34212;51.018;13.586;2022-09-12T15:56:40;97869.44;;;22.34;65.17
43155;BME280;34212;51.018;13.586;2022-09-12T16:01:41;97870.97;;;22.25;65.46
43155;BME280;34212;51.018;13.586;2022-09-12T16:06:43;97876.59;;;22.19;65.74
43155;BME280;34212;51.018;13.586;2022-09-12T16:11:44;97877.56;;;22.12;65.95
43155;BME280;34212;51.018;13.586;2022-09-12T16:16:52;97869.25;;;22.02;66.21
43155;BME280;34212;51.018;13.586;2022-09-12T16:21:54;97852.63;;;21.94;66.32
43155;BME280;34212;51.018;13.586;2022-09-12T16:26:55;97857.06;;;21.83;66.45
43155;BME280;34212;51.018;13.586;2022-09-12T16:32:01;97854.81;;;21.75;66.67
43155;BME280;34212;51.018;13.586;2022-09-12T16:37:03;97853.59;;;21.65;66.86
43155;BME280;34212;51.018;13.586;2022-09-12T16:42:04;97848.59;;;21.57;66.90
43155;BME280;34212;51.018;13.586;2022-09-12T16:47:05;97837.59;;;21.47;67.08
43155;BME280;34212;51.018;13.586;2022-09-12T16:52:07;97839.09;;;21.38;67.29
43155;BME280;34212;51.018;13.586;2022-09-12T16:57:08;97835.13;;;21.29;67.22
43155;BME280;34212;51.018;13.586;2022-09-12T17:02:11;97839.31;;;21.19;67.25
43155;BME280;34212;51.018;13.586;2022-09-12T17:07:12;97820.25;;;21.14;67.68
43155;BME280;34212;51.018;13.586;2022-09-12T17:12:13;97827.72;;;21.07;67.64
43155;BME280;34212;51.018;13.586;2022-09-12T17:17:15;97824.38;;;21.00;67.84
43155;BME280;34212;51.018;13.586;2022-09-12T17:22:16;97816.91;;;20.90;67.66
43155;BME280;34212;51.018;13.586;2022-09-12T17:27:17;97817.53;;;20.81;68.10
43155;BME280;34212;51.018;13.586;2022-09-12T17:32:19;97813.94;;;20.75;68.44
43155;BME280;34212;51.018;13.586;2022-09-12T17:37:20;97814.91;;;20.69;68.40
43155;BME280;34212;51.018;13.586;2022-09-12T17:42:21;97815.03;;;20.62;68.61
43155;BME280;34212;51.018;13.586;2022-09-12T17:47:24;97813.91;;;20.58;68.81
43155;BME280;34212;51.018;13.586;2022-09-12T17:52:25;97822.19;;;20.51;68.98
43155;BME280;34212;51.018;13.586;2022-09-12T17:57:27;97815.25;;;20.44;69.10
43155;BME280;34212;51.018;13.586;2022-09-12T18:02:29;97816.44;;;20.36;69.10
43155;BME280;34212;51.018;13.586;2022-09-12T18:07:33;97818.72;;;20.27;69.30
43155;BME280;34212;51.018;13.586;2022-09-12T18:12:40;97818.03;;;20.20;69.45
43155;BME280;34212;51.018;13.586;2022-09-12T18:17:41;97819.00;;;20.14;69.48
43155;BME280;34212;51.018;13.586;2022-09-12T18:22:42;97820.78;;;20.08;69.52
43155;BME280;34212;51.018;13.586;2022-09-12T18:27:44;97811.41;;;19.99;69.82
43155;BME280;34212;51.018;13.586;2022-09-12T18:32:45;97806.94;;;19.93;69.71
43155;BME280;34212;51.018;13.586;2022-09-12T18:37:47;97816.28;;;19.86;69.86
43155;BME280;34212;51.018;13.586;2022-09-12T18:42:49;97812.88;;;19.78;69.87
43155;BME280;34212;51.018;13.586;2022-09-12T18:47:51;97815.94;;;19.70;70.02
43155;BME280;34212;51.018;13.586;2022-09-12T18:52:53;97821.69;;;19.62;70.04
43155;BME280;34212;51.018;13.586;2022-09-12T18:57:59;97813.97;;;19.54;70.28
43155;BME280;34212;51.018;13.586;2022-09-12T19:03:01;97817.00;;;19.46;70.28
43155;BME280;34212;51.018;13.586;2022-09-12T19:08:02;97817.94;;;19.39;70.38
43155;BME280;34212;51.018;13.586;2022-09-12T19:13:03;97809.97;;;19.33;70.37
43155;BME280;34212;51.018;13.586;2022-09-12T19:18:05;97807.59;;;19.25;70.42
43155;BME280;34212;51.018;13.586;2022-09-12T19:23:06;97797.97;;;19.17;70.37
43155;BME280;34212;51.018;13.586;2022-09-12T19:28:07;97798.91;;;19.11;70.61
43155;BME280;34212;51.018;13.586;2022-09-12T19:33:08;97799.38;;;19.08;70.42
43155;BME280;34212;51.018;13.586;2022-09-12T19:38:10;97794.91;;;19.02;70.53
43155;BME280;34212;51.018;13.586;2022-09-12T19:43:12;97784.22;;;18.95;70.60
43155;BME280;34212;51.018;13.586;2022-09-12T19:48:13;97785.63;;;18.86;70.47
43155;BME280;34212;51.018;13.586;2022-09-12T19:53:15;97786.56;;;18.80;70.53
43155;BME280;34212;51.018;13.586;2022-09-12T19:58:16;97783.97;;;18.73;70.63
43155;BME280;34212;51.018;13.586;2022-09-12T20:03:18;97777.59;;;18.67;70.53
43155;BME280;34212;51.018;13.586;2022-09-12T20:08:19;97780.59;;;18.59;70.72
43155;BME280;34212;51.018;13.586;2022-09-12T20:13:20;97781.53;;;18.53;70.67
43155;BME280;34212;51.018;13.586;2022-09-12T20:18:22;97780.00;;;18.45;70.44
43155;BME280;34212;51.018;13.586;2022-09-12T20:23:23;97780.94;;;18.39;70.64
43155;BME280;34212;51.018;13.586;2022-09-12T20:28:24;97774.81;;;18.32;70.67
43155;BME280;34212;51.018;13.586;2022-09-12T20:33:25;97773.03;;;18.26;70.70
43155;BME280;34212;51.018;13.586;2022-09-12T20:38:27;97774.53;;;18.22;70.73
43155;BME280;34212;51.018;13.586;2022-09-12T20:43:28;97763.81;;;18.15;70.55
43155;BME280;34212;51.018;13.586;2022-09-12T20:48:29;97758.53;;;18.09;70.50
43155;BME280;34212;51.018;13.586;2022-09-12T20:53:31;97755.47;;;18.05;70.60
43155;BME280;34212;51.018;13.586;2022-09-12T20:58:35;97758.63;;;18.02;70.92
43155;BME280;34212;51.018;13.586;2022-09-12T21:03:43;97758.47;;;17.97;70.88
43155;BME280;34212;51.018;13.586;2022-09-12T21:08:45;97751.28;;;17.91;70.91
43155;BME280;34212;51.018;13.586;2022-09-12T21:13:47;97749.28;;;17.86;70.53
43155;BME280;34212;51.018;13.586;2022-09-12T21:18:53;97741.03;;;17.81;70.80
43155;BME280;34212;51.018;13.586;2022-09-12T21:23:58;97738.19;;;17.76;70.83
43155;BME280;34212;51.018;13.586;2022-09-12T21:28:59;97735.34;;;17.71;70.98
43155;BME280;34212;51.018;13.586;2022-09-12T21:34:01;97732.94;;;17.63;70.78
43155;BME280;34212;51.018;13.586;2022-09-12T21:39:02;97730.59;;;17.54;70.76
43155;BME280;34212;51.018;13.586;2022-09-12T21:44:03;97726.09;;;17.48;70.77
43155;BME280;34212;51.018;13.586;2022-09-12T21:49:05;97729.44;;;17.44;70.83
43155;BME280;34212;51.018;13.586;2022-09-12T21:54:06;97722.06;;;17.39;70.89
43155;BME280;34212;51.018;13.586;2022-09-12T21:59:07;97714.41;;;17.36;70.73
43155;BME280;34212;51.018;13.586;2022-09-12T22:04:09;97708.41;;;17.34;70.83
43155;BME280;34212;51.018;13.586;2022-09-12T22:09:10;97698.69;;;17.33;70.99
43155;BME280;34212;51.018;13.586;2022-09-12T22:14:12;97699.75;;;17.32;70.84
43155;BME280;34212;51.018;13.586;2022-09-12T22:19:13;97692.13;;;17.29;70.66
43155;BME280;34212;51.018;13.586;2022-09-12T22:24:15;97689.88;;;17.26;70.78
43155;BME280;34212;51.018;13.586;2022-09-12T22:29:28;97697.34;;;17.24;71.16
43155;BME280;34212;51.018;13.586;2022-09-12T22:34:29;97682.25;;;17.23;70.99
43155;BME280;34212;51.018;13.586;2022-09-12T22:39:31;97673.53;;;17.21;71.04
43155;BME280;34212;51.018;13.586;2022-09-12T22:44:32;97661.13;;;17.20;71.08
43155;BME280;34212;51.018;13.586;2022-09-12T22:49:34;97649.94;;;17.16;70.69
43155;BME280;34212;51.018;13.586;2022-09-12T22:54:35;97646.91;;;17.13;70.61
43155;BME280;34212;51.018;13.586;2022-09-12T22:59:37;97639.88;;;17.12;70.69
43155;BME280;34212;51.018;13.586;2022-09-12T23:04:39;97636.56;;;17.09;70.81
43155;BME280;34212;51.018;13.586;2022-09-12T23:09:40;97627.91;;;17.07;70.99
43155;BME280;34212;51.018;13.586;2022-09-12T23:14:42;97630.00;;;17.05;70.91
43155;BME280;34212;51.018;13.586;2022-09-12T23:19:43;97629.19;;;17.05;70.88
43155;BME280;34212;51.018;13.586;2022-09-12T23:24:44;97621.31;;;17.03;71.15
43155;BME280;34212;51.018;13.586;2022-09-12T23:29:46;97620.72;;;17.01;71.34
43155;BME280;34212;51.018;13.586;2022-09-12T23:34:52;97614.97;;;16.98;71.20
43155;BME280;34212;51.018;13.586;2022-09-12T23:39:53;97615.19;;;16.96;71.24
43155;BME280;34212;51.018;13.586;2022-09-12T23:44:55;97608.16;;;16.95;71.30
43155;BME280;34212;51.018;13.586;2022-09-12T23:49:56;97596.13;;;16.98;71.43
43155;BME280;34212;51.018;13.586;2022-09-12T23:54:58;97598.13;;;17.02;71.50
43155;BME280;34212;51.018;13.586;2022-09-12T23:59:59;97594.16;;;17.05;71.25
